createdAt,value
2022-10-11T00:01:19.169Z,5.38
2022-10-11T00:03:45.763Z,6.18
2022-10-11T00:06:12.363Z,6.60
2022-10-11T00:08:38.902Z,5.93
2022-10-11T00:11:07.035Z,6.88
2022-10-11T00:13:34.188Z,5.80
2022-10-11T00:16:01.151Z,5.93
2022-10-11T00:18:28.198Z,6.72
2022-10-11T00:21:03.102Z,7.75
2022-10-11T00:23:29.680Z,4.13
2022-10-11T00:26:00.657Z,9.88
2022-10-11T00:28:27.315Z,6.18
2022-10-11T00:30:53.940Z,5.82
2022-10-11T00:33:20.493Z,5.38
2022-10-11T00:35:47.143Z,7.72
2022-10-11T00:38:13.676Z,5.93
2022-10-11T00:40:40.339Z,4.68
2022-10-11T00:43:23.608Z,5.47
2022-10-11T00:46:13.414Z,6.10
2022-10-11T00:48:42.522Z,8.23
2022-10-11T00:51:21.554Z,8.98
2022-10-11T00:53:49.660Z,7.95
2022-10-11T00:56:27.297Z,9.88
2022-10-11T00:58:54.101Z,7.47
2022-10-11T01:01:20.749Z,3.63
2022-10-11T01:03:47.390Z,7.03
2022-10-11T01:06:14.004Z,6.60
2022-10-11T01:08:40.731Z,6.97
2022-10-11T01:11:11.120Z,7.32
2022-10-11T01:13:44.106Z,7.35
2022-10-11T01:16:28.923Z,4.97
2022-10-11T01:19:20.727Z,10.77
2022-10-11T01:21:56.653Z,9.63
2022-10-11T01:24:38.290Z,8.25
2022-10-11T01:27:26.010Z,9.00
2022-10-11T01:30:05.923Z,6.88
2022-10-11T01:32:58.150Z,8.48
2022-10-11T01:35:42.144Z,7.57
2022-10-11T01:38:23.042Z,8.05
2022-10-11T01:40:59.211Z,7.82
2022-10-11T01:43:26.659Z,6.97
2022-10-11T01:45:54.947Z,13.43
2022-10-11T01:48:21.553Z,9.75
2022-10-11T01:50:50.809Z,15.02
2022-10-11T01:53:38.827Z,12.10
2022-10-11T01:56:22.398Z,8.32
2022-10-11T01:59:02.517Z,5.45
2022-10-11T02:01:54.812Z,9.38
2022-10-11T02:04:31.036Z,13.18
2022-10-11T02:07:02.667Z,7.00
2022-10-11T02:09:36.504Z,5.72
2022-10-11T02:12:06.838Z,9.15
2022-10-11T02:14:37.208Z,8.38
2022-10-11T02:17:09.059Z,7.93
2022-10-11T02:19:38.707Z,11.55
2022-10-11T02:22:13.195Z,7.90
2022-10-11T02:24:42.127Z,8.80
2022-10-11T02:27:09.630Z,14.82
2022-10-11T02:29:38.522Z,7.28
2022-10-11T02:32:06.236Z,10.48
2022-10-11T02:34:36.277Z,9.07
2022-10-11T02:37:07.163Z,7.63
2022-10-11T02:39:52.653Z,9.48
2022-10-11T02:42:26.464Z,8.73
2022-10-11T02:45:12.210Z,6.68
2022-10-11T02:47:39.454Z,8.40
2022-10-11T02:50:06.334Z,6.93
2022-10-11T02:52:33.930Z,6.97
2022-10-11T02:55:00.507Z,7.38
2022-10-11T02:57:27.085Z,8.60
2022-10-11T02:59:53.640Z,7.75
2022-10-11T03:02:20.187Z,8.75
2022-10-11T03:04:46.736Z,5.22
2022-10-11T03:07:13.886Z,15.82
2022-10-11T03:09:41.046Z,8.30
2022-10-11T03:12:07.787Z,10.68
2022-10-11T03:14:34.355Z,6.70
2022-10-11T03:17:17.565Z,10.32
2022-10-11T03:19:47.723Z,6.18
2022-10-11T03:22:14.254Z,8.93
2022-10-11T03:24:40.793Z,8.93
2022-10-11T03:27:07.636Z,8.98
2022-10-11T03:29:34.254Z,9.45
2022-10-11T03:32:00.815Z,10.43
2022-10-11T03:34:27.394Z,14.60
2022-10-11T03:36:53.985Z,11.80
2022-10-11T03:39:20.548Z,13.57
2022-10-11T03:41:47.130Z,12.48
2022-10-11T03:44:13.686Z,11.35
2022-10-11T03:46:40.244Z,8.98
2022-10-11T03:49:06.803Z,8.13
2022-10-11T03:51:33.347Z,10.80
2022-10-11T03:53:59.894Z,6.13
2022-10-11T03:56:26.442Z,12.48
2022-10-11T03:58:53.017Z,6.63
2022-10-11T04:01:20.150Z,12.95
2022-10-11T04:03:46.755Z,12.10
2022-10-11T04:06:13.306Z,9.60
2022-10-11T04:08:39.848Z,11.73
2022-10-11T04:11:06.398Z,7.82
2022-10-11T04:13:32.946Z,12.35
2022-10-11T04:15:59.480Z,7.95
2022-10-11T04:18:26.073Z,10.10
2022-10-11T04:20:52.614Z,8.70
2022-10-11T04:23:19.164Z,6.63
2022-10-11T04:25:45.911Z,11.05
2022-10-11T04:28:12.509Z,9.73
2022-10-11T04:30:39.642Z,11.00
2022-10-11T04:33:06.175Z,16.20
2022-10-11T04:35:32.830Z,9.07
2022-10-11T04:37:59.417Z,6.88
2022-10-11T04:40:25.965Z,7.88
2022-10-11T04:42:53.817Z,13.48
2022-10-11T04:45:21.322Z,7.80
2022-10-11T04:47:48.685Z,11.18
2022-10-11T04:50:15.323Z,8.52
2022-10-11T04:52:41.991Z,11.75
2022-10-11T04:55:08.992Z,10.52
2022-10-11T04:57:35.534Z,11.77
2022-10-11T05:00:02.328Z,7.82
2022-10-11T05:02:28.951Z,9.30
2022-10-11T05:04:55.638Z,10.48
2022-10-11T05:07:22.421Z,9.30
2022-10-11T05:09:48.967Z,9.13
2022-10-11T05:12:16.736Z,9.10
2022-10-11T05:14:43.650Z,13.13
2022-10-11T05:17:10.288Z,9.27
2022-10-11T05:19:36.850Z,11.15
2022-10-11T05:22:03.426Z,6.30
2022-10-11T05:24:29.993Z,13.27
2022-10-11T05:27:00.896Z,7.55
2022-10-11T05:29:30.007Z,6.63
2022-10-11T05:31:56.720Z,9.02
2022-10-11T05:34:23.266Z,10.75
2022-10-11T05:36:49.841Z,10.00
2022-10-11T05:39:16.483Z,11.02
2022-10-11T05:41:43.042Z,8.07
2022-10-11T05:44:09.949Z,10.00
2022-10-11T05:46:36.531Z,12.45
2022-10-11T05:49:03.104Z,5.75
2022-10-11T05:51:29.758Z,14.95
2022-10-11T05:53:56.349Z,7.32
2022-10-11T05:56:24.806Z,7.70
2022-10-11T05:58:52.130Z,8.88
2022-10-11T06:01:20.986Z,12.27
2022-10-11T06:03:48.020Z,9.25
2022-10-11T06:06:15.001Z,11.93
2022-10-11T06:08:41.686Z,9.02
2022-10-11T06:11:15.630Z,7.78
2022-10-11T06:13:42.603Z,9.80
2022-10-11T06:16:09.562Z,13.40
2022-10-11T06:18:36.291Z,14.15
2022-10-11T06:21:03.218Z,8.82
2022-10-11T06:23:30.240Z,12.80
2022-10-11T06:25:58.130Z,8.70
2022-10-11T06:28:26.566Z,9.65
2022-10-11T06:30:53.208Z,11.30
2022-10-11T06:33:20.192Z,8.98
2022-10-11T06:35:46.762Z,11.40
2022-10-11T06:38:13.308Z,12.02
2022-10-11T06:40:39.863Z,14.65
2022-10-11T06:43:06.489Z,9.45
2022-10-11T06:45:33.202Z,11.15
2022-10-11T06:48:01.844Z,10.73
2022-10-11T06:50:54.363Z,18.20
2022-10-11T06:53:14.981Z,14.52
2022-10-11T06:55:41.534Z,12.40
2022-10-11T06:58:08.094Z,8.93
2022-10-11T07:00:34.756Z,7.68
2022-10-11T07:03:02.433Z,8.95
2022-10-11T07:05:31.718Z,11.65
2022-10-11T07:07:58.262Z,8.35
2022-10-11T07:10:25.008Z,17.50
2022-10-11T07:12:51.696Z,17.80
2022-10-11T07:15:18.284Z,15.73
2022-10-11T07:17:46.859Z,13.23
2022-10-11T07:20:13.414Z,9.20
2022-10-11T07:22:40.001Z,11.82
2022-10-11T07:25:07.008Z,11.55
2022-10-11T07:27:33.576Z,13.38
2022-10-11T07:30:00.133Z,13.57
2022-10-11T07:32:26.796Z,13.93
2022-10-11T07:34:53.519Z,16.42
2022-10-11T07:37:20.104Z,14.38
2022-10-11T07:39:49.167Z,9.00
2022-10-11T07:42:15.773Z,13.88
2022-10-11T07:44:42.342Z,15.90
2022-10-11T07:47:11.284Z,11.98
2022-10-11T07:49:38.210Z,8.80
2022-10-11T07:52:05.013Z,14.45
2022-10-11T07:54:32.806Z,16.65
2022-10-11T07:56:59.486Z,8.57
2022-10-11T07:59:26.058Z,13.23
2022-10-11T08:01:53.814Z,8.70
2022-10-11T08:04:21.534Z,10.05
2022-10-11T08:06:52.448Z,15.07
2022-10-11T08:09:19.975Z,10.30
2022-10-11T08:11:46.515Z,16.13
2022-10-11T08:14:13.063Z,11.82
2022-10-11T08:16:39.947Z,11.38
2022-10-11T08:19:07.122Z,11.80
2022-10-11T08:21:34.023Z,8.05
2022-10-11T08:24:02.538Z,13.30
2022-10-11T08:26:29.430Z,9.85
2022-10-11T08:28:56.414Z,9.90
2022-10-11T08:31:23.002Z,8.75
2022-10-11T08:33:49.595Z,8.60
2022-10-11T08:36:16.237Z,9.48
2022-10-11T08:38:42.905Z,10.43
2022-10-11T08:41:42.871Z,12.77
2022-10-11T08:44:46.406Z,11.90
2022-10-11T08:47:32.062Z,13.02
2022-10-11T08:50:00.106Z,10.00
2022-10-11T08:52:43.175Z,9.57
2022-10-11T08:55:47.443Z,8.55
2022-10-11T08:58:16.478Z,9.48
2022-10-11T09:00:46.338Z,9.00
2022-10-11T09:03:28.678Z,8.00
2022-10-11T09:06:10.687Z,7.75
2022-10-11T09:08:47.190Z,9.63
2022-10-11T09:11:25.931Z,7.47
2022-10-11T09:14:09.606Z,10.93
2022-10-11T09:17:10.393Z,10.40
2022-10-11T09:19:45.374Z,8.77
2022-10-11T09:22:17.779Z,10.13
2022-10-11T09:24:57.321Z,6.82
2022-10-11T09:27:57.231Z,10.10
2022-10-11T09:30:19.296Z,10.55
2022-10-11T09:33:03.157Z,11.60
2022-10-11T09:35:33.017Z,11.25
2022-10-11T09:38:04.713Z,10.35
2022-10-11T09:40:38.987Z,9.82
2022-10-11T09:43:05.898Z,10.15
2022-10-11T09:45:32.455Z,8.57
2022-10-11T09:47:59.954Z,8.63
2022-10-11T09:50:28.418Z,8.15
2022-10-11T09:52:58.346Z,10.95
2022-10-11T09:55:50.360Z,8.70
2022-10-11T09:58:30.415Z,10.70
2022-10-11T10:01:07.576Z,7.78
2022-10-11T10:03:43.058Z,15.55
2022-10-11T10:06:15.734Z,5.28
2022-10-11T10:08:47.277Z,4.85
2022-10-11T10:11:14.645Z,9.82
2022-10-11T10:13:44.626Z,8.50
2022-10-11T10:16:28.811Z,11.07
2022-10-11T10:18:57.557Z,11.40
2022-10-11T10:21:28.189Z,7.28
2022-10-11T10:23:55.757Z,9.18
2022-10-11T10:26:24.978Z,8.38
2022-10-11T10:28:59.296Z,11.07
2022-10-11T10:31:44.487Z,9.70
2022-10-11T10:34:30.379Z,10.00
2022-10-11T10:37:01.686Z,9.65
2022-10-11T10:39:42.644Z,9.48
2022-10-11T10:42:15.715Z,9.50
2022-10-11T10:44:43.203Z,6.85
2022-10-11T10:47:19.571Z,7.75
2022-10-11T10:49:55.068Z,8.15
2022-10-11T10:52:39.549Z,6.88
2022-10-11T10:55:12.268Z,14.48
2022-10-11T10:57:53.226Z,8.40
2022-10-11T11:00:21.629Z,9.68
2022-10-11T11:03:12.345Z,7.90
2022-10-11T11:05:53.762Z,10.23
2022-10-11T11:08:54.125Z,8.88
2022-10-11T11:11:39.531Z,8.95
2022-10-11T11:14:21.912Z,8.32
2022-10-11T11:17:01.915Z,7.07
2022-10-11T11:20:10.486Z,7.25
2022-10-11T11:22:46.150Z,19.85
2022-10-11T11:25:27.721Z,10.70
2022-10-11T11:28:02.669Z,9.73
2022-10-11T11:30:39.110Z,7.03
2022-10-11T11:33:24.459Z,15.98
2022-10-11T11:35:54.362Z,6.63
2022-10-11T11:38:46.822Z,9.30
2022-10-11T11:41:34.690Z,6.53
2022-10-11T11:44:11.278Z,9.82
2022-10-11T11:47:11.082Z,7.10
2022-10-11T11:49:45.239Z,6.15
2022-10-11T11:52:17.881Z,6.35
2022-10-11T11:55:01.462Z,10.27
2022-10-11T11:57:40.295Z,7.50
2022-10-11T12:00:14.260Z,7.85
2022-10-11T12:02:52.126Z,7.70
2022-10-11T12:05:23.313Z,8.25
2022-10-11T12:08:11.704Z,9.23
2022-10-11T12:10:51.422Z,8.65
2022-10-11T12:13:38.716Z,8.43
2022-10-11T12:16:13.646Z,8.65
2022-10-11T12:19:02.092Z,5.63
2022-10-11T12:21:33.205Z,6.35
2022-10-11T12:24:01.469Z,6.88
2022-10-11T12:26:27.908Z,7.80
2022-10-11T12:29:01.698Z,9.02
2022-10-11T12:31:32.441Z,7.60
2022-10-11T12:34:01.948Z,8.55
2022-10-11T12:36:29.659Z,14.32
2022-10-11T12:39:42.127Z,7.43
2022-10-11T12:42:32.149Z,8.32
2022-10-11T12:45:10.805Z,8.68
2022-10-11T12:47:48.642Z,11.95
2022-10-11T12:50:22.929Z,6.88
2022-10-11T12:53:10.719Z,15.05
2022-10-11T12:55:52.570Z,8.77
2022-10-11T12:58:31.639Z,5.07
2022-10-11T13:00:58.157Z,6.28
2022-10-11T13:03:31.866Z,6.68
2022-10-11T13:06:01.709Z,4.93
2022-10-11T13:08:36.920Z,5.80
2022-10-11T13:11:06.613Z,8.40
2022-10-11T13:13:38.865Z,9.15
2022-10-11T13:16:13.627Z,10.23
2022-10-11T13:18:46.130Z,11.52
2022-10-11T13:21:27.026Z,9.35
2022-10-11T13:24:02.275Z,7.90
2022-10-11T13:26:30.858Z,9.45
2022-10-11T13:28:57.761Z,9.30
2022-10-11T13:31:25.319Z,6.05
2022-10-11T13:33:56.538Z,7.53
2022-10-11T13:36:26.757Z,8.57
2022-10-11T13:38:56.811Z,5.25
2022-10-11T13:41:26.233Z,9.18
2022-10-11T13:43:53.586Z,6.28
2022-10-11T13:46:23.407Z,9.43
2022-10-11T13:48:59.896Z,6.40
2022-10-11T13:51:35.999Z,7.35
2022-10-11T13:54:13.618Z,5.93
2022-10-11T13:56:46.449Z,7.45
2022-10-11T13:59:18.949Z,3.17
2022-10-11T14:01:46.064Z,6.88
2022-10-11T14:04:17.583Z,8.38
2022-10-11T14:06:52.024Z,6.88
2022-10-11T14:09:25.587Z,8.40
2022-10-11T14:11:52.306Z,8.40
2022-10-11T14:14:48.385Z,12.02
2022-10-11T14:17:20.807Z,8.13
2022-10-11T14:19:51.481Z,5.45
2022-10-11T14:22:18.749Z,4.93
2022-10-11T14:24:48.634Z,5.13
2022-10-11T14:27:19.396Z,7.38
2022-10-11T14:30:06.049Z,4.80
2022-10-11T14:32:34.197Z,6.00
2022-10-11T14:35:01.081Z,8.63
2022-10-11T14:37:27.687Z,8.75
2022-10-11T14:39:54.319Z,7.45
2022-10-11T14:42:21.162Z,12.63
2022-10-11T14:44:47.701Z,11.05
2022-10-11T14:47:16.434Z,8.57
2022-10-11T14:49:43.971Z,11.05
2022-10-11T14:52:12.096Z,11.05
2022-10-11T14:54:38.829Z,6.90
2022-10-11T14:57:08.089Z,7.53
2022-10-11T14:59:36.971Z,10.55
2022-10-11T15:02:05.916Z,8.02
2022-10-11T15:04:32.831Z,7.60
2022-10-11T15:06:59.662Z,8.20
2022-10-11T15:09:29.197Z,7.07
2022-10-11T15:11:56.321Z,6.38
2022-10-11T15:14:23.977Z,8.57
2022-10-11T15:16:50.515Z,7.82
2022-10-11T15:19:21.736Z,5.30
2022-10-11T15:21:48.732Z,5.30
2022-10-11T15:24:15.528Z,4.30
2022-10-11T15:26:42.384Z,7.75
2022-10-11T15:29:11.142Z,4.07
2022-10-11T15:31:37.669Z,11.00
2022-10-11T15:34:04.278Z,5.82
2022-10-11T15:36:30.831Z,10.18
2022-10-11T15:38:57.600Z,5.57
2022-10-11T15:41:25.143Z,6.25
2022-10-11T15:43:52.266Z,4.63
2022-10-11T15:46:22.298Z,4.57
2022-10-11T15:48:49.931Z,10.57
2022-10-11T15:51:17.002Z,10.32
2022-10-11T15:53:43.802Z,4.65
2022-10-11T15:56:15.387Z,7.15
2022-10-11T15:58:42.234Z,6.93
2022-10-11T16:01:20.761Z,9.20
2022-10-11T16:03:48.411Z,12.50
2022-10-11T16:06:15.579Z,5.63
2022-10-11T16:08:42.138Z,4.35
2022-10-11T16:11:09.668Z,8.20
2022-10-11T16:13:36.857Z,5.30
2022-10-11T16:16:05.500Z,9.40
2022-10-11T16:18:35.582Z,5.65
2022-10-11T16:21:05.993Z,5.82
2022-10-11T16:23:32.713Z,6.75
2022-10-11T16:26:01.133Z,9.57
2022-10-11T16:28:28.468Z,8.70
2022-10-11T16:30:55.247Z,5.35
2022-10-11T16:33:22.084Z,12.10
2022-10-11T16:35:48.791Z,7.55
2022-10-11T16:38:15.634Z,7.10
2022-10-11T16:40:43.227Z,6.60
2022-10-11T16:43:10.169Z,7.13
2022-10-11T16:45:36.930Z,6.25
2022-10-11T16:48:03.880Z,9.90
2022-10-11T16:50:35.546Z,4.20
2022-10-11T16:53:05.029Z,10.30
2022-10-11T16:55:31.734Z,6.93
2022-10-11T16:57:58.261Z,5.90
2022-10-11T17:00:25.018Z,5.20
2022-10-11T17:02:51.892Z,4.82
2022-10-11T17:05:18.473Z,6.43
2022-10-11T17:07:45.104Z,7.97
2022-10-11T17:10:11.932Z,8.63
2022-10-11T17:12:38.833Z,6.50
2022-10-11T17:15:06.219Z,7.78
2022-10-11T17:17:33.846Z,9.45
2022-10-11T17:20:02.510Z,10.02
2022-10-11T17:22:29.223Z,8.43
2022-10-11T17:24:55.934Z,10.82
2022-10-11T17:27:22.603Z,9.20
2022-10-11T17:29:49.263Z,8.68
2022-10-11T17:32:15.979Z,8.00
2022-10-11T17:34:42.523Z,7.97
2022-10-11T17:37:10.128Z,7.45
2022-10-11T17:39:36.722Z,9.57
2022-10-11T17:42:07.372Z,6.50
2022-10-11T17:44:34.918Z,8.18
2022-10-11T17:47:02.607Z,7.65
2022-10-11T17:49:29.203Z,9.20
2022-10-11T17:51:56.767Z,10.88
2022-10-11T17:54:23.804Z,8.60
2022-10-11T17:56:50.559Z,9.60
2022-10-11T17:59:18.985Z,10.20
2022-10-11T18:01:45.790Z,10.93
2022-10-11T18:04:16.778Z,16.83
2022-10-11T18:06:45.351Z,10.68
2022-10-11T18:09:13.038Z,14.13
2022-10-11T18:11:39.601Z,12.45
2022-10-11T18:14:06.207Z,11.57
2022-10-11T18:16:33.208Z,16.17
2022-10-11T18:19:02.256Z,12.18
2022-10-11T18:21:34.268Z,12.60
2022-10-11T18:24:04.647Z,8.82
2022-10-11T18:26:32.139Z,8.50
2022-10-11T18:28:58.999Z,11.68
2022-10-11T18:31:28.562Z,10.23
2022-10-11T18:33:55.235Z,13.77
2022-10-11T18:36:24.528Z,9.32
2022-10-11T18:38:55.045Z,10.10
2022-10-11T18:41:22.916Z,9.10
2022-10-11T18:43:55.259Z,8.20
2022-10-11T18:46:22.859Z,11.07
2022-10-11T18:48:51.655Z,9.90
2022-10-11T18:51:20.722Z,8.25
2022-10-11T18:53:48.108Z,12.60
2022-10-11T18:56:16.423Z,12.98
2022-10-11T18:58:45.167Z,7.05
2022-10-11T19:01:16.241Z,9.20
2022-10-11T19:03:43.917Z,10.82
2022-10-11T19:06:19.185Z,10.75
2022-10-11T19:08:53.858Z,10.10
2022-10-11T19:11:22.276Z,10.52
2022-10-11T19:13:55.492Z,13.65
2022-10-11T19:16:22.527Z,13.95
2022-10-11T19:18:50.054Z,13.43
2022-10-11T19:21:17.106Z,10.40
2022-10-11T19:23:46.014Z,14.38
2022-10-11T19:26:15.053Z,13.07
2022-10-11T19:28:42.015Z,12.32
2022-10-11T19:31:10.423Z,11.73
2022-10-11T19:33:37.078Z,13.13
2022-10-11T19:36:05.730Z,12.95
2022-10-11T19:38:35.967Z,14.43
2022-10-11T19:41:04.060Z,15.35
2022-10-11T19:43:31.697Z,12.95
2022-10-11T19:46:02.890Z,18.52
2022-10-11T19:48:30.182Z,16.70
2022-10-11T19:51:08.167Z,14.88
2022-10-11T19:53:35.311Z,14.00
2022-10-11T19:56:06.646Z,17.70
2022-10-11T19:58:33.328Z,15.75
2022-10-11T20:01:01.875Z,17.42
2022-10-11T20:03:31.318Z,14.85
2022-10-11T20:06:02.051Z,13.95
2022-10-11T20:08:31.339Z,12.15
2022-10-11T20:10:59.668Z,14.70
2022-10-11T20:13:30.040Z,11.18
2022-10-11T20:16:12.011Z,10.18
2022-10-11T20:18:39.067Z,10.63
2022-10-11T20:21:14.015Z,9.35
2022-10-11T20:26:29.854Z,10.20
2022-10-11T20:28:57.461Z,10.68
2022-10-11T20:31:32.948Z,11.52
2022-10-11T20:34:02.471Z,11.20
2022-10-11T20:36:30.230Z,15.20
2022-10-11T20:38:58.012Z,13.90
2022-10-11T20:41:27.249Z,13.90
2022-10-11T20:43:55.628Z,12.05
2022-10-11T20:46:24.437Z,11.15
2022-10-11T20:48:57.610Z,13.25
2022-10-11T20:51:27.628Z,12.50
2022-10-11T20:53:54.632Z,13.52
2022-10-11T20:56:22.151Z,13.65
2022-10-11T20:58:52.905Z,19.27
2022-10-11T21:01:22.434Z,17.48
2022-10-11T21:03:49.505Z,19.00
2022-10-11T21:06:16.034Z,19.88
2022-10-11T21:08:42.567Z,22.38
2022-10-11T21:11:09.836Z,20.90
2022-10-11T21:13:36.760Z,16.98
2022-10-11T21:16:08.201Z,20.50
2022-10-11T21:18:34.737Z,20.75
2022-10-11T21:21:09.120Z,17.73
2022-10-11T21:23:35.676Z,21.40
2022-10-11T21:26:07.832Z,18.08
2022-10-11T21:28:34.558Z,20.75
2022-10-11T21:31:10.594Z,17.88
2022-10-11T21:33:37.467Z,18.05
2022-10-11T21:36:05.438Z,19.40
2022-10-11T21:38:32.266Z,17.10
2022-10-11T21:40:58.801Z,22.35
2022-10-11T21:43:25.329Z,18.25
2022-10-11T21:45:51.910Z,17.95
2022-10-11T21:48:18.438Z,17.33
2022-10-11T21:50:44.982Z,15.45
2022-10-11T21:53:11.524Z,16.63
2022-10-11T21:55:38.071Z,14.63
2022-10-11T21:58:06.202Z,14.25
2022-10-11T22:00:32.735Z,12.90
2022-10-11T22:02:59.274Z,17.83
2022-10-11T22:05:25.844Z,18.63
2022-10-11T22:07:52.383Z,15.20
2022-10-11T22:10:18.959Z,13.35
2022-10-11T22:12:45.538Z,12.38
2022-10-11T22:15:12.075Z,12.60
2022-10-11T22:17:38.641Z,15.15
2022-10-11T22:20:05.401Z,16.38
2022-10-11T22:22:31.981Z,14.10
2022-10-11T22:24:58.531Z,15.52
2022-10-11T22:27:26.271Z,13.65
2022-10-11T22:29:52.808Z,15.02
2022-10-11T22:32:19.341Z,12.82
2022-10-11T22:34:45.883Z,16.58
2022-10-11T22:37:12.430Z,14.90
2022-10-11T22:39:39.143Z,17.70
2022-10-11T22:42:05.678Z,13.57
2022-10-11T22:44:32.198Z,14.20
2022-10-11T22:46:58.759Z,13.65
2022-10-11T22:49:25.291Z,14.18
2022-10-11T22:51:51.848Z,16.58
2022-10-11T22:54:18.379Z,13.98
2022-10-11T22:56:44.917Z,13.70
2022-10-11T22:59:11.554Z,14.70
2022-10-11T23:01:38.079Z,14.18
2022-10-11T23:04:04.792Z,13.48
2022-10-11T23:06:32.025Z,15.73
2022-10-11T23:08:58.587Z,16.10
2022-10-11T23:11:25.130Z,12.00
2022-10-11T23:13:51.665Z,15.65
2022-10-11T23:16:18.235Z,14.75
2022-10-11T23:18:44.776Z,11.35
2022-10-11T23:21:11.517Z,14.05
2022-10-11T23:23:39.832Z,11.82
2022-10-11T23:26:12.525Z,11.50
2022-10-11T23:28:39.367Z,10.52
2022-10-11T23:31:11.637Z,15.00
2022-10-11T23:33:38.638Z,16.02
2022-10-11T23:36:05.942Z,13.15
2022-10-11T23:38:32.609Z,14.43
2022-10-11T23:40:59.464Z,11.43
2022-10-11T23:43:25.990Z,12.25
2022-10-11T23:45:54.129Z,12.95
2022-10-11T23:48:20.664Z,13.48
2022-10-11T23:50:47.227Z,14.32
2022-10-11T23:53:13.839Z,15.27
2022-10-11T23:55:40.672Z,15.05
2022-10-11T23:58:07.204Z,12.05
